sensor_id;sensor_type;location;lat;lon;timestamp;P1;durP1;ratioP1;P2;durP2;ratioP2
40953;SDS011;26686;50.130;8.710;2023-04-01T00:04:50;3.42;;;0.88;;
40953;SDS011;26686;50.130;8.710;2023-04-01T00:09:52;3.20;;;0.95;;
40953;SDS011;26686;50.130;8.710;2023-04-01T00:14:53;2.78;;;0.75;;
40953;SDS011;26686;50.130;8.710;2023-04-01T00:19:55;4.90;;;1.67;;
40953;SDS011;26686;50.130;8.710;2023-04-01T00:24:57;3.08;;;1.00;;
40953;SDS011;26686;50.130;8.710;2023-04-01T00:29:58;4.07;;;1.40;;
40953;SDS011;26686;50.130;8.710;2023-04-01T00:35:00;3.72;;;1.52;;
40953;SDS011;26686;50.130;8.710;2023-04-01T00:40:04;5.17;;;1.20;;
40953;SDS011;26686;50.130;8.710;2023-04-01T00:50:41;8.07;;;0.90;;
40953;SDS011;26686;50.130;8.710;2023-04-01T00:55:49;6.63;;;0.73;;
40953;SDS011;26686;50.130;8.710;2023-04-01T01:00:57;3.35;;;0.90;;
40953;SDS011;26686;50.130;8.710;2023-04-01T01:06:07;3.85;;;0.70;;
40953;SDS011;26686;50.130;8.710;2023-04-01T01:11:11;2.40;;;0.85;;
40953;SDS011;26686;50.130;8.710;2023-04-01T01:16:30;4.43;;;1.30;;
40953;SDS011;26686;50.130;8.710;2023-04-01T01:21:53;3.60;;;1.45;;
40953;SDS011;26686;50.130;8.710;2023-04-01T01:27:10;2.35;;;0.70;;
40953;SDS011;26686;50.130;8.710;2023-04-01T01:32:17;2.45;;;1.00;;
40953;SDS011;26686;50.130;8.710;2023-04-01T01:37:24;4.28;;;1.10;;
40953;SDS011;26686;50.130;8.710;2023-04-01T01:42:28;2.88;;;0.90;;
40953;SDS011;26686;50.130;8.710;2023-04-01T01:47:33;3.45;;;0.95;;
40953;SDS011;26686;50.130;8.710;2023-04-01T01:52:37;2.78;;;0.68;;
40953;SDS011;26686;50.130;8.710;2023-04-01T01:57:38;4.93;;;1.05;;
40953;SDS011;26686;50.130;8.710;2023-04-01T02:02:41;4.50;;;0.93;;
40953;SDS011;26686;50.130;8.710;2023-04-01T02:07:46;2.90;;;0.98;;
40953;SDS011;26686;50.130;8.710;2023-04-01T02:12:53;3.72;;;0.80;;
40953;SDS011;26686;50.130;8.710;2023-04-01T02:18:01;2.75;;;0.55;;
40953;SDS011;26686;50.130;8.710;2023-04-01T02:23:04;2.65;;;0.80;;
40953;SDS011;26686;50.130;8.710;2023-04-01T02:28:09;2.80;;;0.90;;
40953;SDS011;26686;50.130;8.710;2023-04-01T02:33:18;3.40;;;0.70;;
40953;SDS011;26686;50.130;8.710;2023-04-01T02:38:22;3.65;;;0.65;;
40953;SDS011;26686;50.130;8.710;2023-04-01T02:43:24;1.35;;;0.50;;
40953;SDS011;26686;50.130;8.710;2023-04-01T02:48:26;3.22;;;0.82;;
40953;SDS011;26686;50.130;8.710;2023-04-01T02:53:27;1.40;;;0.60;;
40953;SDS011;26686;50.130;8.710;2023-04-01T02:58:29;1.83;;;0.52;;
40953;SDS011;26686;50.130;8.710;2023-04-01T03:03:31;3.47;;;0.80;;
40953;SDS011;26686;50.130;8.710;2023-04-01T03:08:33;2.22;;;0.70;;
40953;SDS011;26686;50.130;8.710;2023-04-01T03:13:35;3.40;;;0.75;;
40953;SDS011;26686;50.130;8.710;2023-04-01T03:18:37;1.95;;;0.90;;
40953;SDS011;26686;50.130;8.710;2023-04-01T03:23:38;4.78;;;0.85;;
40953;SDS011;26686;50.130;8.710;2023-04-01T03:28:42;5.32;;;1.10;;
40953;SDS011;26686;50.130;8.710;2023-04-01T03:33:44;4.25;;;0.60;;
40953;SDS011;26686;50.130;8.710;2023-04-01T03:38:45;2.70;;;0.88;;
40953;SDS011;26686;50.130;8.710;2023-04-01T03:43:47;3.28;;;0.70;;
40953;SDS011;26686;50.130;8.710;2023-04-01T03:48:48;3.03;;;1.02;;
40953;SDS011;26686;50.130;8.710;2023-04-01T03:53:50;2.78;;;0.40;;
40953;SDS011;26686;50.130;8.710;2023-04-01T03:58:52;1.92;;;0.57;;
40953;SDS011;26686;50.130;8.710;2023-04-01T04:03:53;5.68;;;1.10;;
40953;SDS011;26686;50.130;8.710;2023-04-01T04:08:58;3.42;;;0.60;;
40953;SDS011;26686;50.130;8.710;2023-04-01T04:14:00;3.83;;;0.60;;
40953;SDS011;26686;50.130;8.710;2023-04-01T04:19:01;4.85;;;0.70;;
40953;SDS011;26686;50.130;8.710;2023-04-01T04:24:04;2.38;;;0.80;;
40953;SDS011;26686;50.130;8.710;2023-04-01T04:29:05;3.65;;;0.88;;
40953;SDS011;26686;50.130;8.710;2023-04-01T04:34:08;3.03;;;0.55;;
40953;SDS011;26686;50.130;8.710;2023-04-01T04:39:09;2.50;;;0.63;;
40953;SDS011;26686;50.130;8.710;2023-04-01T04:44:11;3.25;;;0.43;;
40953;SDS011;26686;50.130;8.710;2023-04-01T04:49:12;2.85;;;0.70;;
40953;SDS011;26686;50.130;8.710;2023-04-01T04:54:14;3.20;;;0.68;;
40953;SDS011;26686;50.130;8.710;2023-04-01T04:59:16;5.07;;;0.80;;
40953;SDS011;26686;50.130;8.710;2023-04-01T05:04:18;4.05;;;0.73;;
40953;SDS011;26686;50.130;8.710;2023-04-01T05:09:19;1.75;;;0.50;;
40953;SDS011;26686;50.130;8.710;2023-04-01T05:14:21;2.78;;;0.60;;
40953;SDS011;26686;50.130;8.710;2023-04-01T05:19:23;4.30;;;1.02;;
40953;SDS011;26686;50.130;8.710;2023-04-01T05:24:24;3.30;;;0.50;;
40953;SDS011;26686;50.130;8.710;2023-04-01T05:29:26;4.10;;;0.60;;
40953;SDS011;26686;50.130;8.710;2023-04-01T05:34:28;3.97;;;0.90;;
40953;SDS011;26686;50.130;8.710;2023-04-01T05:39:29;5.00;;;0.70;;
40953;SDS011;26686;50.130;8.710;2023-04-01T05:44:31;3.47;;;0.50;;
40953;SDS011;26686;50.130;8.710;2023-04-01T05:49:33;1.80;;;0.57;;
40953;SDS011;26686;50.130;8.710;2023-04-01T05:54:35;1.30;;;0.40;;
40953;SDS011;26686;50.130;8.710;2023-04-01T05:59:37;2.15;;;0.73;;
40953;SDS011;26686;50.130;8.710;2023-04-01T06:04:39;5.03;;;1.35;;
40953;SDS011;26686;50.130;8.710;2023-04-01T06:09:41;2.55;;;0.68;;
40953;SDS011;26686;50.130;8.710;2023-04-01T06:14:49;2.67;;;0.57;;
40953;SDS011;26686;50.130;8.710;2023-04-01T06:20:03;2.13;;;0.80;;
40953;SDS011;26686;50.130;8.710;2023-04-01T06:25:17;2.00;;;0.50;;
40953;SDS011;26686;50.130;8.710;2023-04-01T06:35:56;3.50;;;1.02;;
40953;SDS011;26686;50.130;8.710;2023-04-01T06:46:11;2.92;;;0.43;;
40953;SDS011;26686;50.130;8.710;2023-04-01T06:56:54;1.02;;;0.50;;
40953;SDS011;26686;50.130;8.710;2023-04-01T07:02:16;0.95;;;0.30;;
40953;SDS011;26686;50.130;8.710;2023-04-01T07:07:48;2.92;;;0.50;;
40953;SDS011;26686;50.130;8.710;2023-04-01T07:12:51;1.73;;;0.38;;
40953;SDS011;26686;50.130;8.710;2023-04-01T07:18:02;1.58;;;0.30;;
40953;SDS011;26686;50.130;8.710;2023-04-01T07:23:26;2.72;;;0.40;;
40953;SDS011;26686;50.130;8.710;2023-04-01T07:28:39;2.47;;;0.52;;
40953;SDS011;26686;50.130;8.710;2023-04-01T07:33:48;1.48;;;0.43;;
40953;SDS011;26686;50.130;8.710;2023-04-01T07:39:08;2.42;;;0.55;;
40953;SDS011;26686;50.130;8.710;2023-04-01T07:50:25;1.55;;;0.40;;
40953;SDS011;26686;50.130;8.710;2023-04-01T07:55:23;1.13;;;0.30;;
40953;SDS011;26686;50.130;8.710;2023-04-01T08:00:37;3.85;;;0.65;;
40953;SDS011;26686;50.130;8.710;2023-04-01T08:22:10;1.10;;;0.30;;
40953;SDS011;26686;50.130;8.710;2023-04-01T08:27:40;0.63;;;0.30;;
40953;SDS011;26686;50.130;8.710;2023-04-01T08:32:47;1.05;;;0.30;;
40953;SDS011;26686;50.130;8.710;2023-04-01T08:38:01;0.85;;;0.20;;
40953;SDS011;26686;50.130;8.710;2023-04-01T09:04:42;0.90;;;0.28;;
40953;SDS011;26686;50.130;8.710;2023-04-01T09:20:47;2.22;;;0.20;;
40953;SDS011;26686;50.130;8.710;2023-04-01T09:26:15;0.98;;;0.22;;
40953;SDS011;26686;50.130;8.710;2023-04-01T09:37:01;0.60;;;0.20;;
40953;SDS011;26686;50.130;8.710;2023-04-01T09:58:24;1.23;;;0.22;;
40953;SDS011;26686;50.130;8.710;2023-04-01T10:20:36;1.08;;;0.30;;
40953;SDS011;26686;50.130;8.710;2023-04-01T10:57:55;0.40;;;0.10;;
40953;SDS011;26686;50.130;8.710;2023-04-01T11:14:30;0.30;;;0.20;;
40953;SDS011;26686;50.130;8.710;2023-04-01T11:20:06;1.10;;;0.28;;
40953;SDS011;26686;50.130;8.710;2023-04-01T11:25:20;0.60;;;0.20;;
40953;SDS011;26686;50.130;8.710;2023-04-01T11:30:28;0.82;;;0.20;;
40953;SDS011;26686;50.130;8.710;2023-04-01T11:35:40;2.67;;;0.20;;
40953;SDS011;26686;50.130;8.710;2023-04-01T11:40:55;0.47;;;0.20;;
40953;SDS011;26686;50.130;8.710;2023-04-01T12:02:04;0.57;;;0.20;;
40953;SDS011;26686;50.130;8.710;2023-04-01T12:07:40;1.60;;;0.77;;
40953;SDS011;26686;50.130;8.710;2023-04-01T12:23:46;0.32;;;0.10;;
40953;SDS011;26686;50.130;8.710;2023-04-01T12:29:30;1.33;;;0.28;;
40953;SDS011;26686;50.130;8.710;2023-04-01T12:34:57;0.45;;;0.13;;
40953;SDS011;26686;50.130;8.710;2023-04-01T12:40:20;0.52;;;0.20;;
40953;SDS011;26686;50.130;8.710;2023-04-01T12:45:32;0.85;;;0.15;;
40953;SDS011;26686;50.130;8.710;2023-04-01T12:55:48;0.30;;;0.10;;
40953;SDS011;26686;50.130;8.710;2023-04-01T13:16:58;0.70;;;0.30;;
40953;SDS011;26686;50.130;8.710;2023-04-01T13:22:50;0.68;;;0.40;;
40953;SDS011;26686;50.130;8.710;2023-04-01T13:27:42;0.77;;;0.50;;
40953;SDS011;26686;50.130;8.710;2023-04-01T13:44:11;1.63;;;0.82;;
40953;SDS011;26686;50.130;8.710;2023-04-01T13:54:55;1.15;;;0.50;;
40953;SDS011;26686;50.130;8.710;2023-04-01T14:22:00;1.98;;;0.40;;
40953;SDS011;26686;50.130;8.710;2023-04-01T14:27:25;1.48;;;0.55;;
40953;SDS011;26686;50.130;8.710;2023-04-01T14:49:00;2.15;;;0.55;;
40953;SDS011;26686;50.130;8.710;2023-04-01T15:04:37;1.15;;;1.05;;
40953;SDS011;26686;50.130;8.710;2023-04-01T15:10:06;1.00;;;0.30;;
40953;SDS011;26686;50.130;8.710;2023-04-01T15:21:25;1.10;;;0.30;;
40953;SDS011;26686;50.130;8.710;2023-04-01T15:47:58;0.63;;;0.32;;
40953;SDS011;26686;50.130;8.710;2023-04-01T16:14:28;1.02;;;0.45;;
40953;SDS011;26686;50.130;8.710;2023-04-01T16:24:46;0.95;;;0.50;;
40953;SDS011;26686;50.130;8.710;2023-04-01T16:35:47;1.58;;;0.60;;
40953;SDS011;26686;50.130;8.710;2023-04-01T16:41:00;0.60;;;0.40;;
40953;SDS011;26686;50.130;8.710;2023-04-01T16:56:55;0.75;;;0.40;;
40953;SDS011;26686;50.130;8.710;2023-04-01T17:02:13;0.52;;;0.32;;
40953;SDS011;26686;50.130;8.710;2023-04-01T17:12:55;1.25;;;0.40;;
40953;SDS011;26686;50.130;8.710;2023-04-01T17:18:13;1.30;;;0.32;;
40953;SDS011;26686;50.130;8.710;2023-04-01T17:23:52;1.17;;;0.63;;
40953;SDS011;26686;50.130;8.710;2023-04-01T17:44:53;1.80;;;0.98;;
40953;SDS011;26686;50.130;8.710;2023-04-01T18:01:09;0.80;;;0.50;;
40953;SDS011;26686;50.130;8.710;2023-04-01T18:06:31;2.25;;;0.43;;
40953;SDS011;26686;50.130;8.710;2023-04-01T18:22:43;2.75;;;0.95;;
40953;SDS011;26686;50.130;8.710;2023-04-01T18:27:49;1.17;;;0.60;;
40953;SDS011;26686;50.130;8.710;2023-04-01T18:33:01;1.30;;;0.60;;
40953;SDS011;26686;50.130;8.710;2023-04-01T18:38:25;2.00;;;0.70;;
40953;SDS011;26686;50.130;8.710;2023-04-01T18:49:17;2.45;;;1.30;;
40953;SDS011;26686;50.130;8.710;2023-04-01T18:54:45;2.90;;;1.30;;
40953;SDS011;26686;50.130;8.710;2023-04-01T19:00:08;1.60;;;1.13;;
40953;SDS011;26686;50.130;8.710;2023-04-01T19:05:38;2.10;;;1.55;;
40953;SDS011;26686;50.130;8.710;2023-04-01T19:15:57;1.52;;;1.27;;
40953;SDS011;26686;50.130;8.710;2023-04-01T19:21:21;2.20;;;1.00;;
40953;SDS011;26686;50.130;8.710;2023-04-01T19:32:24;2.45;;;0.75;;
40953;SDS011;26686;50.130;8.710;2023-04-01T19:37:36;1.05;;;0.63;;
40953;SDS011;26686;50.130;8.710;2023-04-01T19:52:59;1.20;;;0.75;;
40953;SDS011;26686;50.130;8.710;2023-04-01T20:08:33;2.00;;;0.93;;
40953;SDS011;26686;50.130;8.710;2023-04-01T20:19:06;1.33;;;0.50;;
40953;SDS011;26686;50.130;8.710;2023-04-01T20:45:10;2.05;;;1.20;;
40953;SDS011;26686;50.130;8.710;2023-04-01T20:50:39;1.80;;;1.00;;
40953;SDS011;26686;50.130;8.710;2023-04-01T20:56:16;1.27;;;0.63;;
40953;SDS011;26686;50.130;8.710;2023-04-01T21:07:04;0.70;;;0.52;;
40953;SDS011;26686;50.130;8.710;2023-04-01T21:17:33;1.00;;;0.80;;
40953;SDS011;26686;50.130;8.710;2023-04-01T21:22:59;1.40;;;0.80;;
40953;SDS011;26686;50.130;8.710;2023-04-01T21:28:22;2.22;;;0.93;;
40953;SDS011;26686;50.130;8.710;2023-04-01T21:33:39;1.67;;;1.25;;
40953;SDS011;26686;50.130;8.710;2023-04-01T21:44:37;2.63;;;1.63;;
40953;SDS011;26686;50.130;8.710;2023-04-01T22:00:53;1.40;;;0.95;;
40953;SDS011;26686;50.130;8.710;2023-04-01T22:27:35;1.23;;;0.98;;
40953;SDS011;26686;50.130;8.710;2023-04-01T22:32:47;1.60;;;1.15;;
40953;SDS011;26686;50.130;8.710;2023-04-01T22:38:05;1.77;;;0.95;;
40953;SDS011;26686;50.130;8.710;2023-04-01T23:04:49;2.05;;;0.80;;
40953;SDS011;26686;50.130;8.710;2023-04-01T23:09:57;1.13;;;0.50;;
40953;SDS011;26686;50.130;8.710;2023-04-01T23:15:02;2.22;;;0.70;;
40953;SDS011;26686;50.130;8.710;2023-04-01T23:20:24;1.55;;;0.57;;
40953;SDS011;26686;50.130;8.710;2023-04-01T23:25:43;1.05;;;0.65;;
40953;SDS011;26686;50.130;8.710;2023-04-01T23:30:54;1.38;;;0.50;;
40953;SDS011;26686;50.130;8.710;2023-04-01T23:46:31;0.70;;;0.68;;
40953;SDS011;26686;50.130;8.710;2023-04-01T23:51:36;1.73;;;1.10;;
40953;SDS011;26686;50.130;8.710;2023-04-01T23:56:48;1.83;;;0.95;;
